sensor_id;sensor_type;location;lat;lon;timestamp;P1;durP1;ratioP1;P2;durP2;ratioP2
15889;SDS011;8043;49.388;12.128;2024-02-14T00:02:15;4.42;;;2.65;;
15889;SDS011;8043;49.388;12.128;2024-02-14T00:07:18;5.28;;;2.12;;
15889;SDS011;8043;49.388;12.128;2024-02-14T00:12:22;2.65;;;1.70;;
15889;SDS011;8043;49.388;12.128;2024-02-14T00:17:25;2.17;;;1.92;;
15889;SDS011;8043;49.388;12.128;2024-02-14T00:22:27;10.15;;;2.67;;
15889;SDS011;8043;49.388;12.128;2024-02-14T00:27:30;8.18;;;2.95;;
15889;SDS011;8043;49.388;12.128;2024-02-14T00:32:32;5.25;;;2.50;;
15889;SDS011;8043;49.388;12.128;2024-02-14T00:37:36;3.08;;;2.58;;
15889;SDS011;8043;49.388;12.128;2024-02-14T00:42:38;1.80;;;1.65;;
15889;SDS011;8043;49.388;12.128;2024-02-14T00:47:41;4.97;;;2.17;;
15889;SDS011;8043;49.388;12.128;2024-02-14T00:52:44;3.22;;;2.30;;
15889;SDS011;8043;49.388;12.128;2024-02-14T00:57:47;6.20;;;2.37;;
15889;SDS011;8043;49.388;12.128;2024-02-14T01:02:50;4.87;;;2.45;;
15889;SDS011;8043;49.388;12.128;2024-02-14T01:07:54;5.92;;;2.77;;
15889;SDS011;8043;49.388;12.128;2024-02-14T01:12:57;2.30;;;1.80;;
15889;SDS011;8043;49.388;12.128;2024-02-14T01:18:00;7.10;;;2.83;;
15889;SDS011;8043;49.388;12.128;2024-02-14T01:23:03;2.95;;;2.70;;
15889;SDS011;8043;49.388;12.128;2024-02-14T01:28:07;3.95;;;2.67;;
15889;SDS011;8043;49.388;12.128;2024-02-14T01:33:09;2.75;;;1.98;;
15889;SDS011;8043;49.388;12.128;2024-02-14T01:38:12;6.47;;;2.87;;
15889;SDS011;8043;49.388;12.128;2024-02-14T01:48:16;1.55;;;1.45;;
15889;SDS011;8043;49.388;12.128;2024-02-14T01:53:19;2.47;;;2.27;;
15889;SDS011;8043;49.388;12.128;2024-02-14T01:58:26;2.27;;;2.08;;
15889;SDS011;8043;49.388;12.128;2024-02-14T02:03:29;3.67;;;1.80;;
15889;SDS011;8043;49.388;12.128;2024-02-14T02:08:33;2.47;;;2.27;;
15889;SDS011;8043;49.388;12.128;2024-02-14T02:13:36;7.17;;;2.15;;
15889;SDS011;8043;49.388;12.128;2024-02-14T02:18:43;3.05;;;2.02;;
15889;SDS011;8043;49.388;12.128;2024-02-14T02:23:46;4.20;;;2.52;;
15889;SDS011;8043;49.388;12.128;2024-02-14T02:28:49;3.42;;;2.15;;
15889;SDS011;8043;49.388;12.128;2024-02-14T02:33:52;2.40;;;1.65;;
15889;SDS011;8043;49.388;12.128;2024-02-14T02:38:54;2.20;;;1.57;;
15889;SDS011;8043;49.388;12.128;2024-02-14T02:44:08;3.42;;;2.37;;
15889;SDS011;8043;49.388;12.128;2024-02-14T02:49:10;3.15;;;2.60;;
15889;SDS011;8043;49.388;12.128;2024-02-14T02:54:15;2.60;;;2.33;;
15889;SDS011;8043;49.388;12.128;2024-02-14T02:59:17;1.85;;;1.17;;
15889;SDS011;8043;49.388;12.128;2024-02-14T03:09:22;3.08;;;1.52;;
15889;SDS011;8043;49.388;12.128;2024-02-14T03:14:28;3.35;;;2.98;;
15889;SDS011;8043;49.388;12.128;2024-02-14T03:19:33;3.90;;;2.25;;
15889;SDS011;8043;49.388;12.128;2024-02-14T03:24:37;9.43;;;2.37;;
15889;SDS011;8043;49.388;12.128;2024-02-14T03:34:41;3.50;;;1.80;;
15889;SDS011;8043;49.388;12.128;2024-02-14T03:39:44;4.08;;;2.70;;
15889;SDS011;8043;49.388;12.128;2024-02-14T03:44:47;2.30;;;2.12;;
15889;SDS011;8043;49.388;12.128;2024-02-14T03:49:50;2.70;;;2.50;;
15889;SDS011;8043;49.388;12.128;2024-02-14T03:54:52;5.97;;;3.10;;
15889;SDS011;8043;49.388;12.128;2024-02-14T03:59:55;3.55;;;2.80;;
15889;SDS011;8043;49.388;12.128;2024-02-14T04:04:58;6.95;;;3.35;;
15889;SDS011;8043;49.388;12.128;2024-02-14T04:10:03;4.90;;;2.95;;
15889;SDS011;8043;49.388;12.128;2024-02-14T04:15:07;3.30;;;2.87;;
15889;SDS011;8043;49.388;12.128;2024-02-14T04:20:10;3.33;;;2.47;;
15889;SDS011;8043;49.388;12.128;2024-02-14T04:25:15;6.65;;;3.10;;
15889;SDS011;8043;49.388;12.128;2024-02-14T04:30:25;2.42;;;1.77;;
15889;SDS011;8043;49.388;12.128;2024-02-14T04:40:29;3.58;;;2.80;;
15889;SDS011;8043;49.388;12.128;2024-02-14T04:50:34;5.03;;;2.85;;
15889;SDS011;8043;49.388;12.128;2024-02-14T04:55:36;3.70;;;2.33;;
15889;SDS011;8043;49.388;12.128;2024-02-14T05:00:40;3.67;;;2.62;;
15889;SDS011;8043;49.388;12.128;2024-02-14T05:05:43;2.90;;;2.65;;
15889;SDS011;8043;49.388;12.128;2024-02-14T05:10:46;9.08;;;3.27;;
15889;SDS011;8043;49.388;12.128;2024-02-14T05:20:52;2.98;;;2.67;;
15889;SDS011;8043;49.388;12.128;2024-02-14T05:25:54;3.80;;;2.22;;
15889;SDS011;8043;49.388;12.128;2024-02-14T05:30:57;7.17;;;3.37;;
15889;SDS011;8043;49.388;12.128;2024-02-14T05:36:00;6.25;;;2.80;;
15889;SDS011;8043;49.388;12.128;2024-02-14T05:41:05;4.20;;;3.22;;
15889;SDS011;8043;49.388;12.128;2024-02-14T05:46:11;4.47;;;2.92;;
15889;SDS011;8043;49.388;12.128;2024-02-14T05:51:14;5.10;;;3.60;;
15889;SDS011;8043;49.388;12.128;2024-02-14T05:56:17;6.25;;;3.80;;
15889;SDS011;8043;49.388;12.128;2024-02-14T06:01:19;5.15;;;3.02;;
15889;SDS011;8043;49.388;12.128;2024-02-14T06:06:22;7.30;;;4.05;;
15889;SDS011;8043;49.388;12.128;2024-02-14T06:11:24;4.00;;;3.27;;
15889;SDS011;8043;49.388;12.128;2024-02-14T06:16:27;3.75;;;2.67;;
15889;SDS011;8043;49.388;12.128;2024-02-14T06:21:29;10.45;;;4.75;;
15889;SDS011;8043;49.388;12.128;2024-02-14T06:26:33;4.60;;;3.25;;
15889;SDS011;8043;49.388;12.128;2024-02-14T06:31:36;5.70;;;3.10;;
15889;SDS011;8043;49.388;12.128;2024-02-14T06:36:38;6.80;;;4.25;;
15889;SDS011;8043;49.388;12.128;2024-02-14T06:41:41;10.72;;;4.55;;
15889;SDS011;8043;49.388;12.128;2024-02-14T06:46:45;4.22;;;2.42;;
15889;SDS011;8043;49.388;12.128;2024-02-14T06:51:48;6.37;;;3.40;;
15889;SDS011;8043;49.388;12.128;2024-02-14T07:01:52;7.08;;;4.03;;
15889;SDS011;8043;49.388;12.128;2024-02-14T07:06:57;20.20;;;3.27;;
15889;SDS011;8043;49.388;12.128;2024-02-14T07:12:01;10.43;;;4.97;;
15889;SDS011;8043;49.388;12.128;2024-02-14T07:17:04;9.28;;;4.87;;
15889;SDS011;8043;49.388;12.128;2024-02-14T07:22:06;8.38;;;4.40;;
15889;SDS011;8043;49.388;12.128;2024-02-14T07:27:10;8.08;;;5.72;;
15889;SDS011;8043;49.388;12.128;2024-02-14T07:32:13;19.87;;;6.87;;
15889;SDS011;8043;49.388;12.128;2024-02-14T07:37:18;6.22;;;4.37;;
15889;SDS011;8043;49.388;12.128;2024-02-14T07:42:23;10.38;;;6.00;;
15889;SDS011;8043;49.388;12.128;2024-02-14T07:47:26;6.53;;;4.42;;
15889;SDS011;8043;49.388;12.128;2024-02-14T07:52:30;7.03;;;4.95;;
15889;SDS011;8043;49.388;12.128;2024-02-14T07:57:36;8.35;;;4.28;;
15889;SDS011;8043;49.388;12.128;2024-02-14T08:02:38;7.95;;;4.67;;
15889;SDS011;8043;49.388;12.128;2024-02-14T08:12:43;5.55;;;2.83;;
15889;SDS011;8043;49.388;12.128;2024-02-14T08:17:45;6.72;;;4.03;;
15889;SDS011;8043;49.388;12.128;2024-02-14T08:22:48;6.67;;;3.33;;
15889;SDS011;8043;49.388;12.128;2024-02-14T08:27:51;16.35;;;4.97;;
15889;SDS011;8043;49.388;12.128;2024-02-14T08:32:55;5.45;;;3.55;;
15889;SDS011;8043;49.388;12.128;2024-02-14T08:38:04;11.43;;;3.92;;
15889;SDS011;8043;49.388;12.128;2024-02-14T08:43:07;18.30;;;4.72;;
15889;SDS011;8043;49.388;12.128;2024-02-14T08:48:11;7.85;;;4.00;;
15889;SDS011;8043;49.388;12.128;2024-02-14T08:53:14;3.15;;;2.70;;
15889;SDS011;8043;49.388;12.128;2024-02-14T08:58:17;5.15;;;3.42;;
15889;SDS011;8043;49.388;12.128;2024-02-14T09:03:20;4.00;;;2.87;;
15889;SDS011;8043;49.388;12.128;2024-02-14T09:08:23;7.15;;;3.80;;
15889;SDS011;8043;49.388;12.128;2024-02-14T09:18:28;8.20;;;3.10;;
15889;SDS011;8043;49.388;12.128;2024-02-14T09:23:32;7.70;;;3.75;;
15889;SDS011;8043;49.388;12.128;2024-02-14T09:28:34;8.55;;;4.03;;
15889;SDS011;8043;49.388;12.128;2024-02-14T09:33:38;6.53;;;3.10;;
15889;SDS011;8043;49.388;12.128;2024-02-14T09:38:41;6.17;;;3.20;;
15889;SDS011;8043;49.388;12.128;2024-02-14T09:43:47;5.60;;;3.92;;
15889;SDS011;8043;49.388;12.128;2024-02-14T09:48:50;8.55;;;3.92;;
15889;SDS011;8043;49.388;12.128;2024-02-14T09:53:54;5.92;;;2.85;;
15889;SDS011;8043;49.388;12.128;2024-02-14T09:58:58;6.33;;;3.85;;
15889;SDS011;8043;49.388;12.128;2024-02-14T10:04:01;6.92;;;3.98;;
15889;SDS011;8043;49.388;12.128;2024-02-14T10:09:09;4.78;;;2.65;;
15889;SDS011;8043;49.388;12.128;2024-02-14T10:14:12;10.75;;;3.45;;
15889;SDS011;8043;49.388;12.128;2024-02-14T10:19:15;6.72;;;3.52;;
15889;SDS011;8043;49.388;12.128;2024-02-14T10:24:18;8.48;;;3.87;;
15889;SDS011;8043;49.388;12.128;2024-02-14T10:29:21;9.93;;;3.35;;
15889;SDS011;8043;49.388;12.128;2024-02-14T10:34:25;4.00;;;3.27;;
15889;SDS011;8043;49.388;12.128;2024-02-14T10:39:28;6.83;;;3.10;;
15889;SDS011;8043;49.388;12.128;2024-02-14T10:44:31;6.55;;;3.60;;
15889;SDS011;8043;49.388;12.128;2024-02-14T10:49:34;5.00;;;2.17;;
15889;SDS011;8043;49.388;12.128;2024-02-14T10:54:40;9.75;;;3.52;;
15889;SDS011;8043;49.388;12.128;2024-02-14T10:59:44;7.60;;;3.52;;
15889;SDS011;8043;49.388;12.128;2024-02-14T11:04:47;2.83;;;2.30;;
15889;SDS011;8043;49.388;12.128;2024-02-14T11:10:04;5.60;;;3.22;;
15889;SDS011;8043;49.388;12.128;2024-02-14T11:15:18;9.18;;;3.33;;
15889;SDS011;8043;49.388;12.128;2024-02-14T11:20:31;8.10;;;3.77;;
15889;SDS011;8043;49.388;12.128;2024-02-14T11:25:38;8.80;;;2.95;;
15889;SDS011;8043;49.388;12.128;2024-02-14T11:35:49;7.72;;;2.90;;
15889;SDS011;8043;49.388;12.128;2024-02-14T11:40:53;3.87;;;2.37;;
15889;SDS011;8043;49.388;12.128;2024-02-14T11:45:59;14.20;;;5.15;;
15889;SDS011;8043;49.388;12.128;2024-02-14T11:51:04;9.05;;;3.22;;
15889;SDS011;8043;49.388;12.128;2024-02-14T11:56:08;7.33;;;3.77;;
15889;SDS011;8043;49.388;12.128;2024-02-14T12:01:12;5.10;;;3.15;;
15889;SDS011;8043;49.388;12.128;2024-02-14T12:06:16;8.63;;;2.87;;
15889;SDS011;8043;49.388;12.128;2024-02-14T12:11:18;6.10;;;3.55;;
15889;SDS011;8043;49.388;12.128;2024-02-14T12:16:21;9.95;;;3.67;;
15889;SDS011;8043;49.388;12.128;2024-02-14T12:21:23;8.70;;;3.77;;
15889;SDS011;8043;49.388;12.128;2024-02-14T12:26:27;5.95;;;3.83;;
15889;SDS011;8043;49.388;12.128;2024-02-14T12:31:29;8.78;;;3.00;;
15889;SDS011;8043;49.388;12.128;2024-02-14T12:36:33;4.42;;;2.90;;
15889;SDS011;8043;49.388;12.128;2024-02-14T12:41:36;3.77;;;2.77;;
15889;SDS011;8043;49.388;12.128;2024-02-14T12:46:40;4.83;;;2.90;;
15889;SDS011;8043;49.388;12.128;2024-02-14T12:51:42;8.68;;;3.40;;
15889;SDS011;8043;49.388;12.128;2024-02-14T12:56:45;7.28;;;3.70;;
15889;SDS011;8043;49.388;12.128;2024-02-14T13:01:47;6.17;;;3.58;;
15889;SDS011;8043;49.388;12.128;2024-02-14T13:06:50;7.05;;;3.27;;
15889;SDS011;8043;49.388;12.128;2024-02-14T13:11:54;4.65;;;2.58;;
15889;SDS011;8043;49.388;12.128;2024-02-14T13:16:56;13.20;;;3.37;;
15889;SDS011;8043;49.388;12.128;2024-02-14T13:21:59;4.53;;;3.08;;
15889;SDS011;8043;49.388;12.128;2024-02-14T13:27:04;5.40;;;3.60;;
15889;SDS011;8043;49.388;12.128;2024-02-14T13:32:12;3.65;;;2.47;;
15889;SDS011;8043;49.388;12.128;2024-02-14T13:37:17;8.48;;;3.55;;
15889;SDS011;8043;49.388;12.128;2024-02-14T13:42:20;5.10;;;3.30;;
15889;SDS011;8043;49.388;12.128;2024-02-14T13:47:23;5.50;;;3.40;;
15889;SDS011;8043;49.388;12.128;2024-02-14T13:52:26;8.48;;;3.87;;
15889;SDS011;8043;49.388;12.128;2024-02-14T13:57:28;6.25;;;3.50;;
15889;SDS011;8043;49.388;12.128;2024-02-14T14:02:33;4.83;;;2.70;;
15889;SDS011;8043;49.388;12.128;2024-02-14T14:07:40;6.65;;;3.08;;
15889;SDS011;8043;49.388;12.128;2024-02-14T14:12:44;10.88;;;2.58;;
15889;SDS011;8043;49.388;12.128;2024-02-14T14:17:48;6.60;;;3.10;;
15889;SDS011;8043;49.388;12.128;2024-02-14T14:22:52;7.77;;;3.27;;
15889;SDS011;8043;49.388;12.128;2024-02-14T14:27:54;5.20;;;2.25;;
15889;SDS011;8043;49.388;12.128;2024-02-14T14:32:57;4.25;;;2.50;;
15889;SDS011;8043;49.388;12.128;2024-02-14T14:38:02;7.62;;;2.95;;
15889;SDS011;8043;49.388;12.128;2024-02-14T14:43:04;10.23;;;3.33;;
15889;SDS011;8043;49.388;12.128;2024-02-14T14:48:17;6.22;;;2.47;;
15889;SDS011;8043;49.388;12.128;2024-02-14T14:53:42;6.28;;;3.08;;
15889;SDS011;8043;49.388;12.128;2024-02-14T14:58:46;4.65;;;2.42;;
15889;SDS011;8043;49.388;12.128;2024-02-14T15:03:49;4.15;;;2.22;;
15889;SDS011;8043;49.388;12.128;2024-02-14T15:08:54;9.35;;;3.30;;
15889;SDS011;8043;49.388;12.128;2024-02-14T15:13:57;6.97;;;2.47;;
15889;SDS011;8043;49.388;12.128;2024-02-14T15:19:08;4.28;;;2.60;;
15889;SDS011;8043;49.388;12.128;2024-02-14T15:24:11;5.25;;;3.00;;
15889;SDS011;8043;49.388;12.128;2024-02-14T15:29:23;6.17;;;3.17;;
15889;SDS011;8043;49.388;12.128;2024-02-14T15:34:39;7.75;;;3.25;;
15889;SDS011;8043;49.388;12.128;2024-02-14T15:39:42;4.97;;;3.20;;
15889;SDS011;8043;49.388;12.128;2024-02-14T15:44:46;5.92;;;2.70;;
15889;SDS011;8043;49.388;12.128;2024-02-14T15:49:52;5.55;;;3.50;;
15889;SDS011;8043;49.388;12.128;2024-02-14T15:54:57;7.37;;;2.98;;
15889;SDS011;8043;49.388;12.128;2024-02-14T16:00:10;4.85;;;3.52;;
15889;SDS011;8043;49.388;12.128;2024-02-14T16:05:37;5.12;;;2.42;;
15889;SDS011;8043;49.388;12.128;2024-02-14T16:10:41;7.15;;;3.25;;
15889;SDS011;8043;49.388;12.128;2024-02-14T16:15:52;5.28;;;3.08;;
15889;SDS011;8043;49.388;12.128;2024-02-14T16:20:55;10.70;;;2.80;;
15889;SDS011;8043;49.388;12.128;2024-02-14T16:26:01;3.77;;;2.72;;
15889;SDS011;8043;49.388;12.128;2024-02-14T16:31:05;5.40;;;2.65;;
15889;SDS011;8043;49.388;12.128;2024-02-14T16:41:12;9.05;;;2.98;;
15889;SDS011;8043;49.388;12.128;2024-02-14T16:46:16;7.50;;;3.37;;
15889;SDS011;8043;49.388;12.128;2024-02-14T16:51:20;7.20;;;3.85;;
15889;SDS011;8043;49.388;12.128;2024-02-14T16:56:22;5.80;;;3.08;;
15889;SDS011;8043;49.388;12.128;2024-02-14T17:01:26;4.65;;;3.50;;
15889;SDS011;8043;49.388;12.128;2024-02-14T17:06:30;6.55;;;2.90;;
15889;SDS011;8043;49.388;12.128;2024-02-14T17:11:34;11.30;;;6.10;;
15889;SDS011;8043;49.388;12.128;2024-02-14T17:16:37;7.87;;;4.15;;
15889;SDS011;8043;49.388;12.128;2024-02-14T17:21:41;8.48;;;3.90;;
15889;SDS011;8043;49.388;12.128;2024-02-14T17:26:44;12.30;;;3.55;;
15889;SDS011;8043;49.388;12.128;2024-02-14T17:31:47;5.97;;;3.92;;
15889;SDS011;8043;49.388;12.128;2024-02-14T17:36:50;18.05;;;7.78;;
15889;SDS011;8043;49.388;12.128;2024-02-14T17:41:53;9.65;;;4.42;;
15889;SDS011;8043;49.388;12.128;2024-02-14T17:46:56;12.35;;;5.08;;
15889;SDS011;8043;49.388;12.128;2024-02-14T17:57:01;6.17;;;2.60;;
15889;SDS011;8043;49.388;12.128;2024-02-14T18:02:04;12.95;;;4.40;;
15889;SDS011;8043;49.388;12.128;2024-02-14T18:07:06;13.30;;;4.92;;
15889;SDS011;8043;49.388;12.128;2024-02-14T18:12:10;6.78;;;3.98;;
15889;SDS011;8043;49.388;12.128;2024-02-14T18:17:12;11.60;;;5.95;;
15889;SDS011;8043;49.388;12.128;2024-02-14T18:22:15;7.15;;;3.83;;
15889;SDS011;8043;49.388;12.128;2024-02-14T18:27:17;15.72;;;5.22;;
15889;SDS011;8043;49.388;12.128;2024-02-14T18:32:23;9.00;;;3.72;;
15889;SDS011;8043;49.388;12.128;2024-02-14T18:37:26;10.93;;;5.22;;
15889;SDS011;8043;49.388;12.128;2024-02-14T18:42:29;8.35;;;4.70;;
15889;SDS011;8043;49.388;12.128;2024-02-14T18:47:32;9.08;;;4.45;;
15889;SDS011;8043;49.388;12.128;2024-02-14T18:52:35;5.90;;;3.75;;
15889;SDS011;8043;49.388;12.128;2024-02-14T18:57:39;6.08;;;4.20;;
15889;SDS011;8043;49.388;12.128;2024-02-14T19:02:42;14.63;;;5.37;;
15889;SDS011;8043;49.388;12.128;2024-02-14T19:07:47;7.95;;;4.75;;
15889;SDS011;8043;49.388;12.128;2024-02-14T19:12:55;9.38;;;4.55;;
15889;SDS011;8043;49.388;12.128;2024-02-14T19:17:59;9.40;;;4.22;;
15889;SDS011;8043;49.388;12.128;2024-02-14T19:23:02;7.03;;;4.20;;
15889;SDS011;8043;49.388;12.128;2024-02-14T19:28:07;5.83;;;3.08;;
15889;SDS011;8043;49.388;12.128;2024-02-14T19:33:11;13.10;;;5.10;;
15889;SDS011;8043;49.388;12.128;2024-02-14T19:38:21;11.08;;;4.85;;
15889;SDS011;8043;49.388;12.128;2024-02-14T19:43:25;10.72;;;5.28;;
15889;SDS011;8043;49.388;12.128;2024-02-14T19:48:30;17.10;;;5.50;;
15889;SDS011;8043;49.388;12.128;2024-02-14T19:53:38;10.10;;;4.10;;
15889;SDS011;8043;49.388;12.128;2024-02-14T19:58:41;14.00;;;7.45;;
15889;SDS011;8043;49.388;12.128;2024-02-14T20:03:44;23.98;;;9.40;;
15889;SDS011;8043;49.388;12.128;2024-02-14T20:08:47;24.10;;;10.40;;
15889;SDS011;8043;49.388;12.128;2024-02-14T20:18:52;9.78;;;5.03;;
15889;SDS011;8043;49.388;12.128;2024-02-14T20:23:55;15.15;;;5.87;;
15889;SDS011;8043;49.388;12.128;2024-02-14T20:28:58;9.50;;;5.10;;
15889;SDS011;8043;49.388;12.128;2024-02-14T20:34:03;11.18;;;5.58;;
15889;SDS011;8043;49.388;12.128;2024-02-14T20:39:06;11.30;;;5.95;;
15889;SDS011;8043;49.388;12.128;2024-02-14T20:44:09;11.22;;;4.30;;
15889;SDS011;8043;49.388;12.128;2024-02-14T20:49:18;9.70;;;3.62;;
15889;SDS011;8043;49.388;12.128;2024-02-14T20:54:21;5.55;;;3.05;;
15889;SDS011;8043;49.388;12.128;2024-02-14T21:04:26;8.90;;;4.72;;
15889;SDS011;8043;49.388;12.128;2024-02-14T21:09:28;11.38;;;4.42;;
15889;SDS011;8043;49.388;12.128;2024-02-14T21:14:31;7.67;;;4.47;;
15889;SDS011;8043;49.388;12.128;2024-02-14T21:19:34;11.63;;;4.90;;
15889;SDS011;8043;49.388;12.128;2024-02-14T21:24:37;10.32;;;5.35;;
15889;SDS011;8043;49.388;12.128;2024-02-14T21:34:43;9.88;;;5.00;;
15889;SDS011;8043;49.388;12.128;2024-02-14T21:39:47;10.28;;;4.60;;
15889;SDS011;8043;49.388;12.128;2024-02-14T21:44:50;11.22;;;4.35;;
15889;SDS011;8043;49.388;12.128;2024-02-14T21:49:57;6.65;;;3.70;;
15889;SDS011;8043;49.388;12.128;2024-02-14T21:55:14;11.25;;;4.12;;
15889;SDS011;8043;49.388;12.128;2024-02-14T22:00:09;6.17;;;3.77;;
15889;SDS011;8043;49.388;12.128;2024-02-14T22:05:12;7.12;;;3.60;;
15889;SDS011;8043;49.388;12.128;2024-02-14T22:10:15;7.83;;;3.70;;
15889;SDS011;8043;49.388;12.128;2024-02-14T22:15:17;9.23;;;3.67;;
15889;SDS011;8043;49.388;12.128;2024-02-14T22:20:20;5.28;;;3.60;;
15889;SDS011;8043;49.388;12.128;2024-02-14T22:25:23;7.92;;;3.85;;
15889;SDS011;8043;49.388;12.128;2024-02-14T22:30:26;6.25;;;3.37;;
15889;SDS011;8043;49.388;12.128;2024-02-14T22:35:30;6.10;;;3.40;;
15889;SDS011;8043;49.388;12.128;2024-02-14T22:40:32;6.90;;;4.15;;
15889;SDS011;8043;49.388;12.128;2024-02-14T22:45:36;12.98;;;4.78;;
15889;SDS011;8043;49.388;12.128;2024-02-14T22:55:40;6.05;;;3.62;;
15889;SDS011;8043;49.388;12.128;2024-02-14T23:00:42;15.23;;;4.72;;
15889;SDS011;8043;49.388;12.128;2024-02-14T23:05:45;11.25;;;4.17;;
15889;SDS011;8043;49.388;12.128;2024-02-14T23:10:48;13.22;;;3.80;;
15889;SDS011;8043;49.388;12.128;2024-02-14T23:15:50;8.18;;;3.92;;
15889;SDS011;8043;49.388;12.128;2024-02-14T23:25:53;31.90;;;11.30;;
15889;SDS011;8043;49.388;12.128;2024-02-14T23:30:56;15.75;;;6.33;;
15889;SDS011;8043;49.388;12.128;2024-02-14T23:35:58;20.12;;;6.30;;
15889;SDS011;8043;49.388;12.128;2024-02-14T23:46:02;6.75;;;4.45;;
15889;SDS011;8043;49.388;12.128;2024-02-14T23:51:05;7.90;;;4.92;;
15889;SDS011;8043;49.388;12.128;2024-02-14T23:56:07;13.85;;;5.25;;
